Kouwamaru — JD3211 — position and weather

sailwx.info

Track history (hours):
 
Tides and Currents Weather Stations Pressure Air Temp Water Temp Dewpoint Dewpoint Depression Visibility Wind Speed Wind Dir Waves Ship Positions

Kouwamaru

Last reported at 2018-Jun-25 19:19 UTC. Time now 2018-Jun-25 19:38 UTC.
Position N 34°41' E 135°19'.

Length 48 m; draft 3.2 m.

Type: Tanker. MMSI: 431002774.

Date/timePositionNaut miles runAvg speedWind from/ knotsBaromVisibWave heightAir tempDewpointWater temp
2018-Jun-25 19:19N 34°41' E 135°19'0 0.0
2018-Jun-25 18:43N 34°41' E 135°19'0 0.0
2018-Jun-25 18:25N 34°41' E 135°19'0 0.0
2018-Jun-25 17:55N 34°41' E 135°19'0 0.0
2018-Jun-25 17:19N 34°41' E 135°19'0 0.0
2018-Jun-25 16:55N 34°41' E 135°19'0 0.0
2018-Jun-25 16:13N 34°41' E 135°19'0 1.4
2018-Jun-25 16:00N 34°41' E 135°19'510.8
2018-Jun-25 15:30N 34°36' E 135°16'510.8
2018-Jun-25 15:00N 34°35' E 135°09'511.1
2018-Jun-25 14:30N 34°36' E 135°03'910.6
2018-Jun-25 13:40N 34°34' E 134°52'210.2
2018-Jun-25 13:30N 34°34' E 134°50'510.0
2018-Jun-25 13:00N 34°32' E 134°45'710.4
2018-Jun-25 12:19N 34°29' E 134°37'310.8
2018-Jun-25 12:00N 34°28' E 134°33'510.7
2018-Jun-25 11:30N 34°26' E 134°27'  
2018-Jun-21 07:36N 34°25' E 134°21'211.3
2018-Jun-21 07:25N 34°26' E 134°24'511.6
2018-Jun-21 06:58N 34°28' E 134°30'1211.6
2018-Jun-21 05:56N 34°32' E 134°43'1212.5
2018-Jun-21 04:56N 34°37' E 134°57'511.3
2018-Jun-21 04:30N 34°36' E 135°03'5 9.8
2018-Jun-21 03:59N 34°33' E 135°08'510.3
2018-Jun-21 03:30N 34°30' E 135°13'510.4
2018-Jun-21 03:00N 34°27' E 135°18'2 0.5
2018-Jun-20 23:19N 34°26' E 135°19'0 0.6
2018-Jun-20 23:00N 34°26' E 135°19'1 2.8
2018-Jun-20 22:30N 34°27' E 135°19'510.6
2018-Jun-20 22:00N 34°33' E 135°19'510.3
2018-Jun-20 21:30N 34°38' E 135°18'510.3
2018-Jun-20 21:00N 34°43' E 135°17'0 0.4
2018-Jun-20 20:30N 34°43' E 135°18'0 0.0
2018-Jun-20 19:39N 34°43' E 135°18'0 0.0
2018-Jun-20 19:21N 34°43' E 135°18'0 0.0
2018-Jun-20 18:51N 34°43' E 135°18'0 0.0
2018-Jun-20 18:21N 34°43' E 135°18'0 0.0
2018-Jun-20 17:51N 34°43' E 135°18'0 0.0
2018-Jun-20 17:21N 34°43' E 135°18'0 0.0
2018-Jun-20 16:45N 34°43' E 135°18'0 0.0
2018-Jun-20 16:09N 34°43' E 135°18'0 0.0
2018-Jun-20 15:57N 34°43' E 135°18'0 0.0
2018-Jun-20 15:27N 34°43' E 135°18'0 0.0
2018-Jun-20 14:51N 34°43' E 135°18'0 0.0
2018-Jun-20 14:27N 34°43' E 135°18'0 0.0
2018-Jun-20 13:51N 34°43' E 135°18'0 0.0
2018-Jun-20 04:09N 34°43' E 135°18'0 0.0
2018-Jun-20 03:46N 34°43' E 135°18'1 2.5
2018-Jun-20 03:30N 34°42' E 135°18'1 1.2
2018-Jun-20 02:59N 34°42' E 135°18'0 0.0
2018-Jun-20 02:29N 34°42' E 135°18'0 0.0
2018-Jun-20 01:59N 34°42' E 135°18'0 0.0
2018-Jun-20 01:29N 34°42' E 135°18'0 0.0
2018-Jun-20 00:53N 34°42' E 135°18'0 0.0
2018-Jun-20 00:29N 34°42' E 135°18'0 0.0
2018-Jun-19 23:53N 34°42' E 135°18'0 0.0
2018-Jun-19 23:29N 34°42' E 135°18'0 0.0
2018-Jun-19 22:59N 34°42' E 135°18'0 0.0
2018-Jun-19 22:29N 34°42' E 135°18'0 0.4
2018-Jun-19 22:00N 34°42' E 135°18'1 0.9
2018-Jun-19 21:25N 34°42' E 135°18'0 0.0
2018-Jun-19 20:55N 34°42' E 135°18'0 0.0
2018-Jun-19 20:19N 34°42' E 135°18'0 0.0
2018-Jun-19 19:55N 34°42' E 135°18'0 0.0
2018-Jun-19 19:25N 34°42' E 135°18'0 0.0
2018-Jun-19 18:55N 34°42' E 135°18'0 0.0
2018-Jun-19 18:25N 34°42' E 135°18'0 0.0
2018-Jun-19 17:55N 34°42' E 135°18'0 0.0
2018-Jun-19 17:19N 34°42' E 135°18'0 0.0
2018-Jun-19 16:55N 34°42' E 135°18'0 0.1
2018-Jun-19 16:19N 34°42' E 135°18'0 0.0
2018-Jun-19 15:55N 34°42' E 135°18'0 0.1
2018-Jun-19 15:25N 34°42' E 135°18'0 0.1
2018-Jun-19 14:55N 34°42' E 135°18'0 0.0
2018-Jun-19 14:25N 34°42' E 135°18'0 0.0
2018-Jun-19 13:55N 34°42' E 135°18'0 0.0
2018-Jun-19 13:25N 34°42' E 135°18'0 0.0
2018-Jun-19 12:55N 34°42' E 135°18'0 0.0
2018-Jun-19 12:07N 34°42' E 135°18'0 0.0
2018-Jun-19 11:31N 34°42' E 135°18'0 0.0
2018-Jun-19 11:13N 34°42' E 135°18'0 0.0
2018-Jun-19 10:55N 34°42' E 135°18'0 0.0
2018-Jun-19 10:25N 34°42' E 135°18'4 8.4
2018-Jun-19 09:57N 34°38' E 135°18'510.7
2018-Jun-19 09:30N 34°35' E 135°13'612.2
2018-Jun-19 09:00N 34°35' E 135°05'1112.2
2018-Jun-19 08:06N 34°34' E 134°52'112.4
2018-Jun-19 08:00N 34°34' E 134°51'611.7
2018-Jun-19 07:30N 34°32' E 134°44'711.2
2018-Jun-19 06:50N 34°29' E 134°36'411.3
2018-Jun-19 06:30N 34°27' E 134°32'611.1
2018-Jun-19 05:57N 34°25' E 134°25'  
Track history (hours):
 
Tides and Currents Weather Stations Pressure Air Temp Water Temp Dewpoint Dewpoint Depression Visibility Wind Speed Wind Dir Waves Ship Positions

Kouwamaru

Last reported at 2018-Jun-25 19:19 UTC. Time now 2018-Jun-25 19:38 UTC.
Position N 34°41' E 135°19'.

Length 48 m; draft 3.2 m.

Type: Tanker. MMSI: 431002774.

Date/timePositionNaut miles runAvg speedWind from/ knotsBaromVisibWave heightAir tempDewpointWater temp
2018-Jun-25 19:19N 34°41' E 135°19'0 0.0
2018-Jun-25 18:43N 34°41' E 135°19'0 0.0
2018-Jun-25 18:25N 34°41' E 135°19'0 0.0
2018-Jun-25 17:55N 34°41' E 135°19'0 0.0
2018-Jun-25 17:19N 34°41' E 135°19'0 0.0
2018-Jun-25 16:55N 34°41' E 135°19'0 0.0
2018-Jun-25 16:13N 34°41' E 135°19'0 1.4
2018-Jun-25 16:00N 34°41' E 135°19'510.8
2018-Jun-25 15:30N 34°36' E 135°16'510.8
2018-Jun-25 15:00N 34°35' E 135°09'511.1
2018-Jun-25 14:30N 34°36' E 135°03'910.6
2018-Jun-25 13:40N 34°34' E 134°52'210.2
2018-Jun-25 13:30N 34°34' E 134°50'510.0
2018-Jun-25 13:00N 34°32' E 134°45'710.4
2018-Jun-25 12:19N 34°29' E 134°37'310.8
2018-Jun-25 12:00N 34°28' E 134°33'510.7
2018-Jun-25 11:30N 34°26' E 134°27'  
2018-Jun-21 07:36N 34°25' E 134°21'211.3
2018-Jun-21 07:25N 34°26' E 134°24'511.6
2018-Jun-21 06:58N 34°28' E 134°30'1211.6
2018-Jun-21 05:56N 34°32' E 134°43'1212.5
2018-Jun-21 04:56N 34°37' E 134°57'511.3
2018-Jun-21 04:30N 34°36' E 135°03'5 9.8
2018-Jun-21 03:59N 34°33' E 135°08'510.3
2018-Jun-21 03:30N 34°30' E 135°13'510.4
2018-Jun-21 03:00N 34°27' E 135°18'2 0.5
2018-Jun-20 23:19N 34°26' E 135°19'0 0.6
2018-Jun-20 23:00N 34°26' E 135°19'1 2.8
2018-Jun-20 22:30N 34°27' E 135°19'510.6
2018-Jun-20 22:00N 34°33' E 135°19'510.3
2018-Jun-20 21:30N 34°38' E 135°18'510.3
2018-Jun-20 21:00N 34°43' E 135°17'0 0.4
2018-Jun-20 20:30N 34°43' E 135°18'0 0.0
2018-Jun-20 19:39N 34°43' E 135°18'0 0.0
2018-Jun-20 19:21N 34°43' E 135°18'0 0.0
2018-Jun-20 18:51N 34°43' E 135°18'0 0.0
2018-Jun-20 18:21N 34°43' E 135°18'0 0.0
2018-Jun-20 17:51N 34°43' E 135°18'0 0.0
2018-Jun-20 17:21N 34°43' E 135°18'0 0.0
2018-Jun-20 16:45N 34°43' E 135°18'0 0.0
2018-Jun-20 16:09N 34°43' E 135°18'0 0.0
2018-Jun-20 15:57N 34°43' E 135°18'0 0.0
2018-Jun-20 15:27N 34°43' E 135°18'0 0.0
2018-Jun-20 14:51N 34°43' E 135°18'0 0.0
2018-Jun-20 14:27N 34°43' E 135°18'0 0.0
2018-Jun-20 13:51N 34°43' E 135°18'0 0.0
2018-Jun-20 04:09N 34°43' E 135°18'0 0.0
2018-Jun-20 03:46N 34°43' E 135°18'1 2.5
2018-Jun-20 03:30N 34°42' E 135°18'1 1.2
2018-Jun-20 02:59N 34°42' E 135°18'0 0.0
2018-Jun-20 02:29N 34°42' E 135°18'0 0.0
2018-Jun-20 01:59N 34°42' E 135°18'0 0.0
2018-Jun-20 01:29N 34°42' E 135°18'0 0.0
2018-Jun-20 00:53N 34°42' E 135°18'0 0.0
2018-Jun-20 00:29N 34°42' E 135°18'0 0.0
2018-Jun-19 23:53N 34°42' E 135°18'0 0.0
2018-Jun-19 23:29N 34°42' E 135°18'0 0.0
2018-Jun-19 22:59N 34°42' E 135°18'0 0.0
2018-Jun-19 22:29N 34°42' E 135°18'0 0.4
2018-Jun-19 22:00N 34°42' E 135°18'1 0.9
2018-Jun-19 21:25N 34°42' E 135°18'0 0.0
2018-Jun-19 20:55N 34°42' E 135°18'0 0.0
2018-Jun-19 20:19N 34°42' E 135°18'0 0.0
2018-Jun-19 19:55N 34°42' E 135°18'0 0.0
2018-Jun-19 19:25N 34°42' E 135°18'0 0.0
2018-Jun-19 18:55N 34°42' E 135°18'0 0.0
2018-Jun-19 18:25N 34°42' E 135°18'0 0.0
2018-Jun-19 17:55N 34°42' E 135°18'0 0.0
2018-Jun-19 17:19N 34°42' E 135°18'0 0.0
2018-Jun-19 16:55N 34°42' E 135°18'0 0.1
2018-Jun-19 16:19N 34°42' E 135°18'0 0.0
2018-Jun-19 15:55N 34°42' E 135°18'0 0.1
2018-Jun-19 15:25N 34°42' E 135°18'0 0.1
2018-Jun-19 14:55N 34°42' E 135°18'0 0.0
2018-Jun-19 14:25N 34°42' E 135°18'0 0.0
2018-Jun-19 13:55N 34°42' E 135°18'0 0.0
2018-Jun-19 13:25N 34°42' E 135°18'0 0.0
2018-Jun-19 12:55N 34°42' E 135°18'0 0.0
2018-Jun-19 12:07N 34°42' E 135°18'0 0.0
2018-Jun-19 11:31N 34°42' E 135°18'0 0.0
2018-Jun-19 11:13N 34°42' E 135°18'0 0.0
2018-Jun-19 10:55N 34°42' E 135°18'0 0.0
2018-Jun-19 10:25N 34°42' E 135°18'4 8.4
2018-Jun-19 09:57N 34°38' E 135°18'510.7
2018-Jun-19 09:30N 34°35' E 135°13'612.2
2018-Jun-19 09:00N 34°35' E 135°05'1112.2
2018-Jun-19 08:06N 34°34' E 134°52'112.4
2018-Jun-19 08:00N 34°34' E 134°51'611.7
2018-Jun-19 07:30N 34°32' E 134°44'711.2
2018-Jun-19 06:50N 34°29' E 134°36'411.3
2018-Jun-19 06:30N 34°27' E 134°32'611.1
2018-Jun-19 05:57N 34°25' E 134°25'  

Dump ship's entire track history